Time;durP1;ratioP1;P1;durP2;ratioP2;P2;SDS_P1;SDS_P2;PMS_P1;PMS_P2;Temp;Humidity;BMP_temperature;BMP_pressure;BME280_temperature;BME280_humidity;BME280_pressure;Samples;Min_cycle;Max_cycle;Signal;HPM_P1;HPM_P2
2021/10/28 00:14:21;;;;;;;26.00;12.13;;;8.70;99.90;;;;;;5058954;28;20189;-67
2021/10/28 00:16:49;;;;;;;14.47;11.37;;;8.70;99.90;;;;;;5051964;28;20199;-67
2021/10/28 00:19:15;;;;;;;18.87;12.73;;;8.70;99.90;;;;;;5062840;28;20316;-67
2021/10/28 00:21:42;;;;;;;12.57;11.33;;;8.70;99.90;;;;;;5072867;28;20228;-67
2021/10/28 00:24:10;;;;;;;16.10;12.93;;;8.70;99.90;;;;;;5065890;28;20209;-66
2021/10/28 00:26:38;;;;;;;14.70;11.87;;;8.70;99.90;;;;;;5055353;28;20206;-67
2021/10/28 00:29:06;;;;;;;17.60;12.50;;;8.70;99.90;;;;;;5064064;28;20176;-67
2021/10/28 00:31:35;;;;;;;16.23;11.77;;;8.70;99.90;;;;;;5075417;28;20182;-66
2021/10/28 00:34:01;;;;;;;20.07;12.60;;;8.60;99.90;;;;;;5067979;28;20166;-67
2021/10/28 00:36:27;;;;;;;14.60;12.37;;;8.60;99.90;;;;;;5059260;28;20514;-67
2021/10/28 00:38:53;;;;;;;15.47;12.07;;;8.60;99.90;;;;;;5075545;28;20170;-67
2021/10/28 00:41:22;;;;;;;15.90;12.63;;;8.60;99.90;;;;;;5073190;28;20205;-67
2021/10/28 00:43:54;;;;;;;17.00;12.47;;;8.60;99.90;;;;;;5055510;28;20182;-67
2021/10/28 00:46:20;;;;;;;19.67;12.00;;;8.50;99.90;;;;;;5056935;28;20199;-65
2021/10/28 00:48:47;;;;;;;21.93;13.10;;;8.50;99.90;;;;;;5075294;28;20174;-67
2021/10/28 00:51:14;;;;;;;16.97;13.07;;;8.60;99.90;;;;;;5075214;28;20541;-67
2021/10/28 00:53:41;;;;;;;19.07;12.80;;;8.60;99.90;;;;;;5035404;28;20255;-65
2021/10/28 00:56:07;;;;;;;16.67;12.47;;;8.60;99.90;;;;;;5035491;28;20198;-67
2021/10/28 00:58:34;;;;;;;20.90;14.40;;;8.50;99.90;;;;;;5072495;28;20174;-66
2021/10/28 01:01:01;;;;;;;16.27;12.00;;;8.50;99.90;;;;;;5075031;28;20197;-67
2021/10/28 01:03:28;;;;;;;23.40;14.70;;;8.50;99.90;;;;;;5058063;28;20629;-67
2021/10/28 01:05:53;;;;;;;22.10;13.70;;;8.50;99.90;;;;;;5068142;28;20737;-67
2021/10/28 01:08:19;;;;;;;20.43;15.03;;;8.50;99.90;;;;;;5056566;28;20234;-67
2021/10/28 01:10:49;;;;;;;21.33;15.00;;;8.50;99.90;;;;;;5062891;28;20281;-67
2021/10/28 01:13:17;;;;;;;22.47;15.57;;;8.50;99.90;;;;;;5054813;28;20178;-68
2021/10/28 01:15:43;;;;;;;21.53;18.93;;;8.50;99.90;;;;;;5065264;28;20174;-67
2021/10/28 01:18:09;;;;;;;24.80;16.37;;;8.50;99.90;;;;;;5075027;28;20414;-67
2021/10/28 01:20:37;;;;;;;24.27;16.13;;;8.50;99.90;;;;;;5065499;28;20660;-66
2021/10/28 01:23:03;;;;;;;22.57;14.87;;;8.50;99.90;;;;;;5055181;28;20216;-66
2021/10/28 01:25:29;;;;;;;19.30;14.77;;;8.50;99.90;;;;;;5061778;28;20257;-67
2021/10/28 01:27:55;;;;;;;21.67;14.60;;;8.50;99.90;;;;;;5074698;28;20339;-67
2021/10/28 01:30:20;;;;;;;22.93;14.73;;;8.50;99.90;;;;;;5068588;28;20242;-66
2021/10/28 01:32:46;;;;;;;24.93;14.23;;;8.40;99.90;;;;;;5056025;28;20175;-67
2021/10/28 01:35:11;;;;;;;18.33;13.47;;;8.40;99.90;;;;;;5074881;28;20651;-67
2021/10/28 01:37:42;;;;;;;20.47;13.53;;;8.40;99.90;;;;;;5074689;28;20166;-66
2021/10/28 01:40:10;;;;;;;26.53;13.97;;;8.40;99.90;;;;;;5034248;28;20242;-66
2021/10/28 01:42:36;;;;;;;25.73;13.40;;;8.40;99.90;;;;;;5034829;28;20168;-66
2021/10/28 01:45:02;;;;;;;21.87;14.90;;;8.40;99.90;;;;;;5073520;28;20185;-66
2021/10/28 01:47:28;;;;;;;18.27;14.20;;;8.40;99.90;;;;;;5074962;28;20697;-65
2021/10/28 01:49:54;;;;;;;23.03;14.33;;;8.40;99.90;;;;;;5058798;28;20179;-65
2021/10/28 01:52:19;;;;;;;19.00;14.27;;;8.40;99.90;;;;;;5055166;28;20205;-66
2021/10/28 01:54:45;;;;;;;21.17;14.57;;;8.40;99.90;;;;;;5070313;28;20174;-67
2021/10/28 01:57:19;;;;;;;19.07;14.00;;;8.30;99.90;;;;;;5075260;28;20181;-66
2021/10/28 01:59:44;;;;;;;23.13;13.63;;;8.30;99.90;;;;;;5059482;28;20174;-67
2021/10/28 02:02:10;;;;;;;22.50;15.17;;;8.30;99.90;;;;;;5054052;28;20199;-66
2021/10/28 02:04:35;;;;;;;21.20;14.87;;;8.30;99.90;;;;;;5066634;28;20182;-67
2021/10/28 02:07:01;;;;;;;23.43;14.73;;;8.30;99.90;;;;;;5074450;28;20206;-66
2021/10/28 02:09:27;;;;;;;21.40;14.17;;;8.30;99.90;;;;;;5072696;28;20243;-67
2021/10/28 02:11:53;;;;;;;23.93;14.80;;;8.30;99.90;;;;;;5072383;28;20190;-67
2021/10/28 02:14:18;;;;;;;20.63;16.37;;;8.30;99.90;;;;;;5073738;28;20545;-65
2021/10/28 02:16:44;;;;;;;30.43;16.80;;;8.30;99.90;;;;;;5071224;28;20185;-67
2021/10/28 02:19:10;;;;;;;22.57;15.87;;;8.30;99.90;;;;;;5053840;28;20170;-67
2021/10/28 02:21:36;;;;;;;27.10;16.83;;;8.30;99.90;;;;;;5053427;28;20186;-67
2021/10/28 02:24:01;;;;;;;22.33;16.60;;;8.30;99.90;;;;;;5073739;28;20189;-66
2021/10/28 02:26:27;;;;;;;30.00;18.07;;;8.30;99.90;;;;;;5073298;28;20565;-67
2021/10/28 02:28:56;;;;;;;23.47;16.07;;;8.30;99.90;;;;;;5054455;28;20213;-67
2021/10/28 02:31:22;;;;;;;27.30;17.53;;;8.40;99.90;;;;;;5053219;28;20191;-68
2021/10/28 02:33:48;;;;;;;23.63;16.50;;;8.50;99.90;;;;;;5070315;28;20231;-67
2021/10/28 02:36:15;;;;;;;31.07;17.07;;;8.60;99.90;;;;;;5073290;28;20166;-67
2021/10/28 02:38:42;;;;;;;37.53;18.83;;;8.70;99.90;;;;;;5068382;28;20587;-67
2021/10/28 02:41:07;;;;;;;34.40;17.20;;;8.80;99.90;;;;;;5072629;28;20206;-66
2021/10/28 02:43:33;;;;;;;31.73;17.20;;;8.90;99.90;;;;;;5058593;28;20270;-65
2021/10/28 02:45:59;;;;;;;31.27;18.23;;;8.90;99.90;;;;;;5053827;28;20203;-67
2021/10/28 02:48:25;;;;;;;34.23;17.77;;;9.00;99.90;;;;;;5064571;28;20179;-67
2021/10/28 02:50:50;;;;;;;36.37;17.67;;;9.00;99.90;;;;;;5072524;28;20200;-67
2021/10/28 02:53:16;;;;;;;29.20;17.73;;;9.10;99.90;;;;;;5062718;28;20171;-67
2021/10/28 02:55:41;;;;;;;30.23;17.10;;;9.10;99.90;;;;;;5052718;28;20279;-66
2021/10/28 02:58:07;;;;;;;39.03;16.70;;;9.20;99.90;;;;;;5060815;28;20183;-67
2021/10/28 03:00:32;;;;;;;27.33;17.93;;;9.20;99.90;;;;;;5072421;28;20190;-67
2021/10/28 03:02:59;;;;;;;32.47;17.43;;;9.10;99.90;;;;;;5064812;28;20183;-67
2021/10/28 03:05:24;;;;;;;38.50;17.50;;;9.10;99.90;;;;;;5052729;28;20182;-67
2021/10/28 03:07:51;;;;;;;37.87;18.70;;;9.10;99.90;;;;;;5070889;28;20178;-66
2021/10/28 03:10:17;;;;;;;38.70;17.67;;;9.10;99.90;;;;;;5063512;28;20174;-66
2021/10/28 03:12:44;;;;;;;38.37;18.97;;;9.20;99.90;;;;;;5052680;28;20190;-67
2021/10/28 03:15:12;;;;;;;36.87;19.53;;;9.20;99.90;;;;;;5057875;28;20174;-67
2021/10/28 03:27:44;;;;;;;31.47;18.37;;;9.30;99.90;;;;;;5072088;28;20265;-67
2021/10/28 03:30:10;;;;;;;30.93;18.57;;;9.30;99.90;;;;;;5064184;28;20186;-67
2021/10/28 03:32:36;;;;;;;36.67;18.07;;;9.30;99.90;;;;;;5056844;28;20183;-67
2021/10/28 03:35:04;;;;;;;36.70;19.03;;;9.40;99.90;;;;;;5064171;28;20185;-67
2021/10/28 03:37:40;;;;;;;35.10;17.90;;;9.40;99.90;;;;;;5065953;28;20308;-67
2021/10/28 04:01:28;;;;;;;38.77;18.53;;;9.50;99.90;;;;;;5091509;28;20193;-65
2021/10/28 04:30:18;;;;;;;56.10;29.87;;;9.70;99.90;;;;;;5085769;28;20170;-66
2021/10/28 04:32:44;;;;;;;46.43;29.60;;;9.70;99.90;;;;;;5071042;28;20296;-65
2021/10/28 04:35:11;;;;;;;47.73;27.73;;;9.70;99.90;;;;;;5074134;28;20245;-65
2021/10/28 04:37:37;;;;;;;38.77;24.37;;;9.80;99.90;;;;;;5091211;28;20627;-66
2021/10/28 04:40:07;;;;;;;41.47;23.23;;;9.80;99.90;;;;;;5085820;28;20174;-64
2021/10/28 04:42:34;;;;;;;45.57;21.60;;;9.80;99.90;;;;;;5072114;28;20694;-65
2021/10/28 04:45:00;;;;;;;34.63;21.40;;;9.90;99.90;;;;;;5075119;28;20181;-64
2021/10/28 04:47:25;;;;;;;42.60;19.63;;;9.90;99.90;;;;;;5091148;28;20211;-64
2021/10/28 04:49:51;;;;;;;40.13;21.47;;;9.90;99.90;;;;;;5090547;28;20181;-65
2021/10/28 04:52:18;;;;;;;38.93;22.03;;;9.90;99.90;;;;;;5091169;28;20201;-65
2021/10/28 04:54:44;;;;;;;41.37;20.77;;;9.80;99.90;;;;;;5090192;28;20199;-65
2021/10/28 04:57:09;;;;;;;48.00;22.57;;;9.80;99.90;;;;;;5070944;28;20209;-65
2021/10/28 04:59:35;;;;;;;37.50;20.53;;;9.80;99.90;;;;;;5071914;28;20182;-65
2021/10/28 05:02:01;;;;;;;41.30;21.43;;;9.90;99.90;;;;;;5089882;28;20670;-65
2021/10/28 05:04:26;;;;;;;40.73;21.27;;;9.90;99.90;;;;;;5087122;28;20170;-63
2021/10/28 05:06:52;;;;;;;37.80;21.00;;;9.90;99.90;;;;;;5070668;28;20574;-65
2021/10/28 05:09:28;;;;;;;39.67;21.00;;;9.90;99.90;;;;;;5075707;28;20212;-65
2021/10/28 05:11:54;;;;;;;39.93;20.83;;;9.90;99.90;;;;;;5094619;28;20250;-66
2021/10/28 05:14:20;;;;;;;39.07;20.60;;;9.90;99.90;;;;;;5093141;28;20252;-65
2021/10/28 05:16:45;;;;;;;38.27;22.03;;;9.90;99.90;;;;;;5077212;28;20182;-66
2021/10/28 05:19:11;;;;;;;40.50;22.53;;;9.90;99.90;;;;;;5094098;28;20170;-66
2021/10/28 05:21:37;;;;;;;44.10;21.93;;;9.90;99.90;;;;;;5074253;28;20284;-65
2021/10/28 05:24:02;;;;;;;45.13;24.57;;;9.90;99.90;;;;;;5074379;28;20627;-64
2021/10/28 05:26:28;;;;;;;40.73;22.40;;;9.80;99.90;;;;;;5092220;28;20209;-64
2021/10/28 05:28:54;;;;;;;38.13;22.30;;;9.80;99.90;;;;;;5094546;28;20169;-65
2021/10/28 05:31:21;;;;;;;42.13;19.80;;;9.80;99.90;;;;;;5077589;28;20228;-65
2021/10/28 05:33:47;;;;;;;40.20;21.17;;;9.80;99.90;;;;;;5074059;28;20530;-65
2021/10/28 05:36:13;;;;;;;37.53;20.37;;;9.70;99.90;;;;;;5089012;28;20208;-66
2021/10/28 05:38:39;;;;;;;33.13;20.70;;;9.70;99.90;;;;;;5094262;28;20181;-66
2021/10/28 05:41:05;;;;;;;35.83;20.80;;;9.70;99.90;;;;;;5080125;28;20224;-65
2021/10/28 05:43:30;;;;;;;34.97;19.07;;;9.70;99.90;;;;;;5074068;28;20185;-65
2021/10/28 05:45:56;;;;;;;37.57;18.53;;;9.60;99.90;;;;;;5085286;28;20200;-66
2021/10/28 05:48:22;;;;;;;39.80;20.80;;;9.50;99.90;;;;;;5092384;28;20177;-66
2021/10/28 05:50:48;;;;;;;34.17;17.40;;;9.50;99.90;;;;;;5093730;28;20198;-65
2021/10/28 05:53:14;;;;;;;35.30;18.47;;;9.50;99.90;;;;;;5088336;28;20550;-65
2021/10/28 05:55:39;;;;;;;40.53;18.63;;;9.50;99.90;;;;;;5077737;28;20182;-65
2021/10/28 05:58:05;;;;;;;40.67;18.47;;;9.50;99.90;;;;;;5073668;28;20232;-65
2021/10/28 06:00:31;;;;;;;30.40;17.47;;;9.50;99.90;;;;;;5077044;28;20227;-66
2021/10/28 06:02:57;;;;;;;36.33;19.57;;;9.40;99.90;;;;;;5093787;28;20181;-64
2021/10/28 06:05:23;;;;;;;37.80;18.10;;;9.40;99.90;;;;;;5089374;28;20260;-66
2021/10/28 06:07:49;;;;;;;39.87;18.60;;;9.40;99.90;;;;;;5073038;28;20709;-65
2021/10/28 06:10:19;;;;;;;38.97;20.33;;;9.40;99.90;;;;;;5075469;28;20315;-64
2021/10/28 06:12:52;;;;;;;34.07;18.90;;;9.40;99.90;;;;;;5093365;28;20284;-66
2021/10/28 06:15:20;;;;;;;37.30;19.63;;;9.40;99.90;;;;;;5091004;28;20173;-65
2021/10/28 06:20:12;;;;;;;39.33;20.87;;;9.30;99.90;;;;;;5071902;28;20185;-65
2021/10/28 06:22:38;;;;;;;39.77;19.43;;;9.30;99.90;;;;;;5093036;28;20189;-66
2021/10/28 06:25:04;;;;;;;45.60;21.70;;;9.40;99.90;;;;;;5093681;28;20169;-65
2021/10/28 06:27:30;;;;;;;38.23;21.47;;;9.40;99.90;;;;;;5073230;28;20671;-65
2021/10/28 06:29:55;;;;;;;41.83;20.80;;;9.40;99.90;;;;;;5071724;28;20181;-65
2021/10/28 06:32:21;;;;;;;41.77;21.17;;;9.40;99.90;;;;;;5090667;28;20201;-65
2021/10/28 06:34:48;;;;;;;39.97;21.40;;;9.50;99.90;;;;;;5092048;28;20571;-65
2021/10/28 06:37:15;;;;;;;45.33;19.37;;;9.50;99.90;;;;;;5076408;28;20189;-65
2021/10/28 06:39:41;;;;;;;43.93;21.23;;;9.50;99.90;;;;;;5072452;28;20783;-65
2021/10/28 06:42:11;;;;;;;40.47;19.87;;;9.50;99.90;;;;;;5087255;28;20666;-65
2021/10/28 06:44:37;;;;;;;38.53;19.07;;;9.50;99.90;;;;;;5092745;28;20166;-65
2021/10/28 06:47:03;;;;;;;42.73;19.23;;;9.50;99.90;;;;;;5078797;28;20224;-65
2021/10/28 06:49:32;;;;;;;48.23;21.07;;;9.50;99.90;;;;;;5081449;28;20185;-65
2021/10/28 06:51:57;;;;;;;50.40;20.60;;;9.50;99.90;;;;;;5092637;28;20492;-65
2021/10/28 06:54:31;;;;;;;46.03;21.50;;;9.60;99.90;;;;;;5084525;28;20550;-64
2021/10/28 07:04:40;;;;;;;44.60;21.90;;;9.70;99.90;;;;;;5080826;28;20190;-65
2021/10/28 07:07:05;;;;;;;44.67;20.30;;;9.80;99.90;;;;;;5076782;28;20209;-65
2021/10/28 07:09:40;;;;;;;47.77;20.43;;;9.80;99.90;;;;;;5079169;28;20169;-65
2021/10/28 07:12:17;;;;;;;41.20;20.73;;;9.90;99.90;;;;;;5092283;28;20184;-65
2021/10/28 07:14:47;;;;;;;43.47;21.63;;;9.90;99.90;;;;;;5083686;28;20213;-65
2021/10/28 07:20:00;;;;;;;40.93;21.03;;;10.00;99.90;;;;;;5091932;28;20427;-64
2021/10/28 07:57:42;;;;;;;48.83;24.07;;;10.50;99.90;;;;;;5051529;28;20699;-63
2021/10/28 08:22:12;;;;;;;19.07;13.73;;;12.60;99.90;;;;;;5080350;28;20556;-63
2021/10/28 08:30:09;;;;;;;14.00;12.50;;;13.20;99.90;;;;;;5088239;28;20255;-62
2021/10/28 08:32:37;;;;;;;12.77;11.43;;;13.20;99.90;;;;;;5091363;28;20658;-63
2021/10/28 08:35:03;;;;;;;13.93;12.43;;;13.40;99.90;;;;;;5074917;28;20257;-65
2021/10/28 08:37:52;;;;;;;13.33;11.77;;;13.50;99.90;;;;;;5071062;28;20225;-62
2021/10/28 08:40:15;;;;;;;12.53;11.30;;;13.70;99.90;;;;;;5083373;28;20233;-64
2021/10/28 08:42:42;;;;;;;13.87;10.87;;;14.10;99.90;;;;;;5092024;28;20235;-64
2021/10/28 08:45:11;;;;;;;11.80;10.37;;;14.30;99.90;;;;;;5079253;28;20190;-63
2021/10/28 08:47:46;;;;;;;12.93;11.47;;;14.60;99.90;;;;;;5074603;28;20206;-65
2021/10/28 08:50:19;;;;;;;12.00;10.80;;;14.70;99.90;;;;;;5090095;28;20176;-64
2021/10/28 08:55:34;;;;;;;11.73;10.53;;;15.00;99.90;;;;;;5079300;28;20174;-63
2021/10/28 09:26:29;;;;;;;10.50;9.50;;;17.10;99.90;;;;;;5059202;28;20209;-63
2021/10/28 09:29:22;;;;;;;9.77;8.87;;;17.30;99.90;;;;;;5094139;28;20169;-64
2021/10/28 09:32:07;;;;;;;9.77;8.77;;;17.40;99.90;;;;;;5088083;28;20215;-64
2021/10/28 09:51:00;;;;;;;9.10;8.20;;;17.20;99.90;;;;;;5034787;28;20537;-65
2021/10/28 09:53:47;;;;;;;9.37;8.47;;;17.40;99.90;;;;;;5051758;28;20219;-65
2021/10/28 09:59:07;;;;;;;8.60;7.77;;;17.50;99.90;;;;;;5051297;28;20312;-67
2021/10/28 10:01:38;;;;;;;9.43;8.27;;;17.70;99.90;;;;;;5051929;28;20174;-64
2021/10/28 10:04:08;;;;;;;8.80;8.00;;;17.90;99.90;;;;;;5014040;28;20298;-65
2021/10/28 10:06:39;;;;;;;8.37;7.67;;;17.90;99.90;;;;;;5013521;28;20219;-68
2021/10/28 10:09:04;;;;;;;9.57;7.90;;;17.90;99.90;;;;;;5034528;28;20298;-67
2021/10/28 10:11:31;;;;;;;9.03;8.13;;;18.00;99.90;;;;;;5032152;28;20188;-67
2021/10/28 10:13:58;;;;;;;8.47;7.70;;;18.10;99.90;;;;;;5052230;28;20655;-66
2021/10/28 10:16:24;;;;;;;8.17;7.47;;;18.20;99.90;;;;;;5053482;28;20163;-67
2021/10/28 10:18:51;;;;;;;8.77;7.97;;;18.30;99.90;;;;;;5036649;28;20234;-67
2021/10/28 11:22:35;;;;;;;8.10;7.40;;;19.70;99.90;;;;;;5024274;28;20282;-68
2021/10/28 11:25:42;;;;;;;8.00;7.30;;;19.70;99.90;;;;;;5034700;28;20186;-67
2021/10/28 11:27:30;;;;;;;8.00;7.20;;;19.80;99.90;;;;;;5039732;28;20219;-66
2021/10/28 11:30:24;;;;;;;7.93;7.23;;;19.80;99.90;;;;;;5031757;28;20168;-68
2021/10/28 12:13:55;;;;;;;7.93;7.27;;;19.90;99.90;;;;;;5052623;28;20170;-66
2021/10/28 12:24:13;;;;;;;8.60;7.43;;;19.60;99.90;;;;;;5040021;28;20178;-66
2021/10/28 12:49:51;;;;;;;8.03;7.23;;;19.50;99.90;;;;;;5034657;28;20582;-66
2021/10/28 13:28:21;;;;;;;7.60;7.00;;;19.30;99.90;;;;;;5035088;28;20264;-67
2021/10/28 13:37:46;;;;;;;8.63;7.73;;;19.00;99.90;;;;;;5039718;28;20193;-67
2021/10/28 15:32:55;;;;;;;9.63;8.73;;;15.90;99.90;;;;;;5041815;28;20223;-66
2021/10/28 15:40:06;;;;;;;12.73;9.80;;;15.20;99.90;;;;;;5030188;28;20187;-66
2021/10/28 15:48:37;;;;;;;11.10;10.00;;;14.70;99.90;;;;;;5111261;28;20203;-64
2021/10/28 16:23:39;;;;;;;11.27;10.17;;;13.40;99.90;;;;;;5087637;28;20228;-64
2021/10/28 16:26:05;;;;;;;12.40;11.17;;;13.30;99.90;;;;;;5091333;28;20177;-64
2021/10/28 16:28:31;;;;;;;13.63;11.63;;;13.30;99.90;;;;;;5084889;28;20177;-65
2021/10/28 16:30:57;;;;;;;12.30;11.20;;;13.20;99.90;;;;;;5090847;28;20177;-64
2021/10/28 16:33:23;;;;;;;11.90;10.73;;;13.10;99.90;;;;;;5090604;28;20174;-65
2021/10/28 16:35:49;;;;;;;12.30;11.10;;;13.10;99.90;;;;;;5086162;28;20292;-63
2021/10/28 16:38:16;;;;;;;16.30;11.80;;;13.00;99.90;;;;;;5083302;28;20201;-63
2021/10/28 16:40:42;;;;;;;13.73;12.07;;;12.90;99.90;;;;;;5082224;28;20308;-64
2021/10/28 16:43:08;;;;;;;13.40;12.00;;;12.80;99.90;;;;;;5091099;28;20257;-63
2021/10/28 16:45:36;;;;;;;14.77;13.03;;;12.80;99.90;;;;;;5090443;28;20213;-63
2021/10/28 16:48:01;;;;;;;12.43;11.13;;;12.70;99.90;;;;;;5090462;28;20571;-64
2021/10/28 16:50:27;;;;;;;13.50;12.13;;;12.70;99.90;;;;;;5090847;28;20184;-63
2021/10/28 16:52:53;;;;;;;14.20;12.67;;;12.60;99.90;;;;;;5090933;28;20174;-64
2021/10/28 16:55:18;;;;;;;13.63;12.33;;;12.50;99.90;;;;;;5087578;28;20735;-64
2021/10/28 16:57:44;;;;;;;16.13;13.20;;;12.40;99.90;;;;;;5086465;28;20776;-64
2021/10/28 17:00:11;;;;;;;17.17;12.50;;;12.30;99.90;;;;;;5090278;28;20181;-64
2021/10/28 17:02:37;;;;;;;13.90;12.23;;;12.30;99.90;;;;;;5091040;28;20177;-64
2021/10/28 17:05:04;;;;;;;15.80;12.37;;;12.20;99.90;;;;;;5093955;28;20280;-64
2021/10/28 17:07:29;;;;;;;15.07;13.37;;;12.10;99.90;;;;;;5094054;28;20681;-64
2021/10/28 17:09:55;;;;;;;14.53;13.03;;;12.10;99.90;;;;;;5094153;28;20192;-62
2021/10/28 17:12:21;;;;;;;14.33;12.80;;;12.00;99.90;;;;;;5093392;28;20231;-63
2021/10/28 17:14:48;;;;;;;18.07;13.10;;;12.00;99.90;;;;;;5094682;28;20977;-63
2021/10/28 17:17:15;;;;;;;13.90;12.40;;;11.90;99.90;;;;;;5094810;28;20264;-63
2021/10/28 17:19:42;;;;;;;14.17;12.87;;;11.90;99.90;;;;;;5093819;28;20778;-64
2021/10/28 17:22:07;;;;;;;15.27;13.60;;;11.80;99.90;;;;;;5094697;28;20591;-64
2021/10/28 17:24:40;;;;;;;14.20;12.80;;;11.70;99.90;;;;;;5093248;28;20205;-63
2021/10/28 17:27:06;;;;;;;14.63;13.27;;;11.70;99.90;;;;;;5094543;28;20209;-64
2021/10/28 17:29:33;;;;;;;15.87;14.27;;;11.60;99.90;;;;;;5094102;28;20177;-63
2021/10/28 17:31:59;;;;;;;15.80;13.57;;;11.50;99.90;;;;;;5094459;28;20173;-63
2021/10/28 17:34:26;;;;;;;18.33;15.17;;;11.50;99.90;;;;;;5094271;28;20670;-63
2021/10/28 17:36:55;;;;;;;16.63;14.57;;;11.40;99.90;;;;;;5093962;28;20733;-63
2021/10/28 17:39:23;;;;;;;17.67;15.03;;;11.40;99.90;;;;;;5093875;28;20174;-63
2021/10/28 17:41:51;;;;;;;16.10;13.87;;;11.30;99.90;;;;;;5094197;28;20489;-63
2021/10/28 17:44:18;;;;;;;18.50;15.83;;;11.30;99.90;;;;;;5090849;28;20350;-63
2021/10/28 17:46:44;;;;;;;18.53;15.63;;;11.20;99.90;;;;;;5093921;28;20632;-64
2021/10/28 17:49:10;;;;;;;17.60;14.50;;;11.20;99.90;;;;;;5093787;28;20172;-64
2021/10/28 17:51:38;;;;;;;16.13;14.30;;;11.10;99.90;;;;;;5094001;28;20188;-64
2021/10/28 17:54:10;;;;;;;17.03;14.53;;;11.10;99.90;;;;;;5073650;28;20201;-64
2021/10/28 17:56:39;;;;;;;17.83;15.83;;;11.00;99.90;;;;;;5079425;28;20184;-63
2021/10/28 17:59:05;;;;;;;20.07;16.73;;;10.90;99.90;;;;;;5081566;28;20185;-64
2021/10/28 18:01:38;;;;;;;18.37;16.37;;;10.90;99.90;;;;;;5093784;28;20173;-63
2021/10/28 18:04:04;;;;;;;19.03;15.27;;;10.80;99.90;;;;;;5080928;28;20197;-63
2021/10/28 18:06:30;;;;;;;20.13;15.27;;;10.80;99.90;;;;;;5092018;28;20193;-63
2021/10/28 18:09:00;;;;;;;19.13;15.83;;;10.70;99.90;;;;;;5092168;28;20173;-63
2021/10/28 18:11:26;;;;;;;18.83;15.40;;;10.70;99.90;;;;;;5092337;28;20177;-63
2021/10/28 18:13:56;;;;;;;19.40;16.07;;;10.70;99.90;;;;;;5093325;28;20180;-63
2021/10/28 18:16:23;;;;;;;19.33;16.27;;;10.70;99.90;;;;;;5092807;28;20169;-64
2021/10/28 18:18:54;;;;;;;23.43;17.23;;;10.60;99.90;;;;;;5092881;28;20188;-64
2021/10/28 18:21:21;;;;;;;18.93;15.53;;;10.60;99.90;;;;;;5093352;28;20711;-63
2021/10/28 18:23:50;;;;;;;20.90;16.33;;;10.60;99.90;;;;;;5093361;28;20274;-64
2021/10/28 18:26:17;;;;;;;21.80;15.63;;;10.60;99.90;;;;;;5093820;28;20232;-64
2021/10/28 18:28:44;;;;;;;23.13;15.53;;;10.50;99.90;;;;;;5093358;28;20181;-64
2021/10/28 18:31:10;;;;;;;19.93;16.17;;;10.50;99.90;;;;;;5093682;28;20169;-64
2021/10/28 18:33:35;;;;;;;22.70;16.30;;;10.40;99.90;;;;;;5093186;28;20632;-63
2021/10/28 18:36:02;;;;;;;23.23;16.27;;;10.40;99.90;;;;;;5093037;28;20256;-63
2021/10/28 18:38:30;;;;;;;22.57;16.77;;;10.40;99.90;;;;;;5093614;28;20170;-63
2021/10/28 18:40:56;;;;;;;22.57;15.30;;;10.40;99.90;;;;;;5092766;28;20200;-63
2021/10/28 18:43:22;;;;;;;25.50;15.90;;;10.30;99.90;;;;;;5093304;28;20173;-64
2021/10/28 18:45:48;;;;;;;21.17;15.33;;;10.30;99.90;;;;;;5092881;28;20217;-64
2021/10/28 18:48:14;;;;;;;18.37;15.33;;;10.20;99.90;;;;;;5093359;28;20201;-63
2021/10/28 18:50:40;;;;;;;19.27;15.83;;;10.20;99.90;;;;;;5092528;28;20252;-63
2021/10/28 18:53:06;;;;;;;20.63;16.33;;;10.10;99.90;;;;;;5092083;28;20177;-63
2021/10/28 18:55:31;;;;;;;22.40;16.17;;;10.10;99.90;;;;;;5091634;28;20185;-63
2021/10/28 18:57:57;;;;;;;22.90;16.17;;;10.10;99.90;;;;;;5092676;28;20268;-63
2021/10/28 19:00:23;;;;;;;23.77;17.17;;;10.00;99.90;;;;;;5092767;28;20174;-64
2021/10/28 19:02:49;;;;;;;23.50;16.63;;;10.00;99.90;;;;;;5092771;28;20193;-63
2021/10/28 19:05:15;;;;;;;22.60;16.57;;;10.00;99.90;;;;;;5092603;28;20208;-64
2021/10/28 19:07:40;;;;;;;20.77;15.93;;;9.90;99.90;;;;;;5092565;28;20201;-64
2021/10/28 19:10:07;;;;;;;20.57;16.97;;;9.90;99.90;;;;;;5092009;28;20383;-64
2021/10/28 19:12:33;;;;;;;18.27;16.30;;;9.80;99.90;;;;;;5092095;28;20169;-64
2021/10/28 19:14:59;;;;;;;21.37;18.00;;;9.80;99.90;;;;;;5092756;28;20197;-65
2021/10/28 19:17:24;;;;;;;22.90;17.83;;;9.70;99.90;;;;;;5092733;28;20179;-65
2021/10/28 19:19:50;;;;;;;20.43;16.07;;;9.70;99.90;;;;;;5091967;28;20188;-65
2021/10/28 19:22:16;;;;;;;23.80;16.97;;;9.70;99.90;;;;;;5092800;28;20264;-65
2021/10/28 19:24:42;;;;;;;19.90;15.57;;;9.60;99.90;;;;;;5092373;28;20197;-65
2021/10/28 19:27:08;;;;;;;22.10;17.33;;;9.60;99.90;;;;;;5092157;28;20198;-65
2021/10/28 19:29:37;;;;;;;20.43;16.73;;;9.60;99.90;;;;;;5091904;28;20241;-65
2021/10/28 19:32:08;;;;;;;24.33;17.67;;;9.50;99.90;;;;;;5092443;28;20193;-65
2021/10/28 19:34:38;;;;;;;18.73;15.63;;;9.50;99.90;;;;;;5092428;28;20225;-65
2021/10/28 19:37:25;;;;;;;25.70;17.80;;;9.50;99.90;;;;;;5092108;28;20642;-63
2021/10/28 19:45:22;;;;;;;26.83;17.80;;;9.40;99.90;;;;;;5092132;28;20213;-65
2021/10/28 19:47:48;;;;;;;27.73;17.13;;;9.40;99.90;;;;;;5091943;28;20603;-63
2021/10/28 19:50:14;;;;;;;21.40;16.90;;;9.40;99.90;;;;;;5091970;28;20180;-63
2021/10/28 19:52:41;;;;;;;20.20;15.80;;;9.30;99.90;;;;;;5086736;28;20264;-64
2021/10/28 19:55:08;;;;;;;20.17;15.97;;;9.30;99.90;;;;;;5083031;28;20603;-64
2021/10/28 19:57:40;;;;;;;21.30;16.63;;;9.30;99.90;;;;;;5071683;28;20548;-64
2021/10/28 20:05:30;;;;;;;24.00;17.27;;;9.20;99.90;;;;;;5091658;28;20716;-65
2021/10/28 20:13:24;;;;;;;21.80;16.97;;;9.20;99.90;;;;;;5092091;28;20256;-64
2021/10/28 20:21:09;;;;;;;24.73;16.90;;;9.10;99.90;;;;;;5091421;28;20180;-64
2021/10/28 20:23:34;;;;;;;21.20;16.30;;;9.10;99.90;;;;;;5091946;28;20176;-63
2021/10/28 20:26:00;;;;;;;27.27;16.87;;;9.10;99.90;;;;;;5091506;28;20634;-64
2021/10/28 20:28:27;;;;;;;26.43;18.23;;;9.00;99.90;;;;;;5091422;28;20173;-65
2021/10/28 20:30:59;;;;;;;22.33;16.43;;;9.00;99.90;;;;;;5091138;28;20173;-64
2021/10/28 20:33:28;;;;;;;25.47;16.93;;;9.00;99.90;;;;;;5091618;28;20251;-65
2021/10/28 20:37:05;;;;;;;17.57;15.60;;;9.00;99.90;;;;;;5091609;28;20200;-64
2021/10/28 20:38:57;;;;;;;20.73;16.13;;;9.00;99.90;;;;;;5092696;28;20170;-64
2021/10/28 20:41:23;;;;;;;23.00;15.77;;;8.90;99.90;;;;;;5095668;28;20226;-63
2021/10/28 20:43:49;;;;;;;21.17;16.07;;;8.90;99.90;;;;;;5095225;28;20221;-64
2021/10/28 20:46:21;;;;;;;20.20;17.20;;;8.90;99.90;;;;;;5095560;28;20245;-63
2021/10/28 20:48:48;;;;;;;24.90;17.60;;;8.90;99.90;;;;;;5095191;28;20702;-65
2021/10/28 20:51:15;;;;;;;21.27;16.50;;;8.90;99.90;;;;;;5094956;28;20639;-63
2021/10/28 20:53:40;;;;;;;21.67;17.07;;;8.80;99.90;;;;;;5095158;28;20268;-65
2021/10/28 20:56:06;;;;;;;22.33;16.17;;;8.80;99.90;;;;;;5095449;28;20257;-64
2021/10/28 20:58:32;;;;;;;25.17;18.47;;;8.80;99.90;;;;;;5095002;28;20181;-63
2021/10/28 21:00:58;;;;;;;22.73;17.60;;;8.80;99.90;;;;;;5094947;28;20169;-63
2021/10/28 21:03:23;;;;;;;28.30;18.47;;;8.80;99.90;;;;;;5094807;28;20186;-64
2021/10/28 21:05:49;;;;;;;23.77;17.80;;;8.80;99.90;;;;;;5095144;28;20559;-63
2021/10/28 21:08:15;;;;;;;18.40;16.07;;;8.70;99.90;;;;;;5094937;28;20201;-63
2021/10/28 21:10:41;;;;;;;26.27;16.90;;;8.70;99.90;;;;;;5094656;28;20169;-63
2021/10/28 21:13:06;;;;;;;25.20;16.77;;;8.70;99.90;;;;;;5094514;28;20287;-63
2021/10/28 21:15:32;;;;;;;24.50;15.53;;;8.70;99.90;;;;;;5094797;28;20185;-63
2021/10/28 21:17:58;;;;;;;21.67;17.33;;;8.70;99.90;;;;;;5094692;28;20177;-63
2021/10/28 21:20:25;;;;;;;25.53;16.80;;;8.70;99.90;;;;;;5094776;28;20169;-63
2021/10/28 21:22:52;;;;;;;22.53;16.67;;;8.70;99.90;;;;;;5094640;28;20181;-63
2021/10/28 21:25:18;;;;;;;29.07;19.87;;;8.60;99.90;;;;;;5094519;28;20715;-63
2021/10/28 21:27:44;;;;;;;25.40;17.87;;;8.50;99.90;;;;;;5094438;28;20208;-63
2021/10/28 21:30:11;;;;;;;28.83;18.20;;;8.60;99.90;;;;;;5094229;28;20177;-63
2021/10/28 21:32:39;;;;;;;22.77;16.90;;;8.50;99.90;;;;;;5094754;28;20179;-64
2021/10/28 21:35:07;;;;;;;26.93;18.70;;;8.50;99.90;;;;;;5094399;28;20193;-63
2021/10/28 21:37:33;;;;;;;24.97;17.40;;;8.50;99.90;;;;;;5094316;28;20219;-63
2021/10/28 21:39:59;;;;;;;25.63;17.70;;;8.50;99.90;;;;;;5094118;28;20196;-63
2021/10/28 21:42:25;;;;;;;23.63;17.77;;;8.40;99.90;;;;;;5094404;28;20630;-63
2021/10/28 21:44:54;;;;;;;23.93;18.30;;;8.40;99.90;;;;;;5094841;28;20258;-64
2021/10/28 21:47:20;;;;;;;20.70;17.10;;;8.40;99.90;;;;;;5094226;28;20205;-64